Time;durP1;ratioP1;P1;durP2;ratioP2;P2;SDS_P1;SDS_P2;PMS_P1;PMS_P2;Temp;Humidity;BMP_temperature;BMP_pressure;BME280_temperature;BME280_humidity;BME280_pressure;Samples;Min_cycle;Max_cycle;Signal;HPM_P1;HPM_P2
2023/06/19 00:01:35;;;;;;;0.20;0.20;;;24.90;54.50;;;25.57;38.23;94832.38;5032847;28;20680;-42
2023/06/19 00:04:03;;;;;;;0.40;0.40;;;24.90;54.60;;;25.56;38.09;94824.59;5048091;28;20204;-42
2023/06/19 00:06:30;;;;;;;0.30;0.30;;;24.90;54.50;;;25.55;38.05;94825.69;5032707;28;20214;-42
2023/06/19 00:08:57;;;;;;;0.30;0.30;;;24.90;54.60;;;25.53;38.08;94817.13;5032321;28;20614;-42
2023/06/19 00:11:24;;;;;;;0.30;0.30;;;24.90;54.60;;;25.52;38.31;94820.88;5033008;28;20187;-42
2023/06/19 00:13:52;;;;;;;0.43;0.43;;;24.90;54.70;;;25.50;38.25;94826.56;5032351;28;20233;-43
2023/06/19 00:16:19;;;;;;;0.30;0.30;;;24.90;54.70;;;25.50;38.19;94828.44;5031557;28;20201;-42
2023/06/19 00:18:47;;;;;;;0.30;0.30;;;24.90;54.70;;;25.46;38.45;94828.22;5032193;28;20287;-42
2023/06/19 00:21:14;;;;;;;0.30;0.30;;;24.80;54.60;;;25.46;38.13;94824.72;5047838;28;20203;-43
2023/06/19 00:23:41;;;;;;;0.20;0.20;;;24.80;54.70;;;25.44;38.32;94829.59;5031610;28;20247;-44
2023/06/19 00:26:08;;;;;;;0.30;0.30;;;24.80;54.70;;;25.41;38.31;94831.78;5032151;28;20230;-41
2023/06/19 00:28:38;;;;;;;0.30;0.30;;;24.80;54.80;;;25.42;38.13;94835.25;5032005;28;20210;-46
2023/06/19 00:31:06;;;;;;;0.50;0.50;;;24.80;54.70;;;25.39;38.67;94833.94;5048031;28;20221;-42
2023/06/19 00:33:33;;;;;;;0.38;0.38;;;24.80;54.70;;;25.39;38.41;94835.84;5032389;28;20213;-41
2023/06/19 00:36:01;;;;;;;0.50;0.50;;;24.70;54.70;;;25.36;38.36;94829.09;5032365;28;20585;-44
2023/06/19 00:38:28;;;;;;;0.40;0.40;;;24.70;54.70;;;25.36;38.43;94822.94;5047468;28;20528;-42
2023/06/19 00:40:55;;;;;;;0.30;0.30;;;24.70;54.70;;;25.33;38.58;94818.97;5032114;28;20191;-41
2023/06/19 00:43:22;;;;;;;0.40;0.40;;;24.70;54.80;;;25.31;38.59;94814.97;5014772;28;20631;-42
2023/06/19 00:45:50;;;;;;;0.30;0.30;;;24.70;54.90;;;25.30;38.24;94816.84;5032247;28;20190;-42
2023/06/19 00:48:17;;;;;;;0.20;0.20;;;24.70;54.90;;;25.28;38.69;94812.84;5047413;28;20214;-45
2023/06/19 00:50:44;;;;;;;0.30;0.30;;;24.70;56.10;;;25.26;38.40;94811.25;5031964;28;20267;-41
2023/06/19 00:53:13;;;;;;;0.22;0.22;;;24.60;54.80;;;25.26;38.45;94813.94;5030969;28;20246;-44
2023/06/19 00:55:40;;;;;;;0.30;0.30;;;24.60;54.90;;;25.24;38.61;94812.63;5047469;28;20275;-43
2023/06/19 00:58:09;;;;;;;0.30;0.30;;;24.60;54.90;;;25.23;38.30;94808.31;5031680;28;20212;-43
2023/06/19 01:00:36;;;;;;;0.30;0.30;;;24.60;55.00;;;25.22;38.64;94807.53;5030867;28;20209;-40
2023/06/19 01:03:03;;;;;;;0.35;0.35;;;24.60;54.90;;;25.21;38.51;94813.22;5031088;28;20267;-41
2023/06/19 01:05:31;;;;;;;0.30;0.30;;;24.60;55.00;;;25.19;38.47;94807.31;5047331;28;20258;-41
2023/06/19 01:08:12;;;;;;;0.30;0.30;;;24.60;55.00;;;25.16;38.71;94808.69;5030506;28;20316;-41
2023/06/19 01:10:53;;;;;;;0.30;0.30;;;24.60;55.00;;;25.14;38.86;94810.06;5046216;28;20194;-41
2023/06/19 01:13:44;;;;;;;0.38;0.38;;;24.50;54.90;;;25.12;38.72;94813.06;5014518;28;20209;-41
2023/06/19 01:16:13;;;;;;;0.30;0.30;;;24.50;55.00;;;25.11;38.78;94806.06;5031698;28;20194;-42
2023/06/19 01:18:41;;;;;;;0.30;0.30;;;24.50;54.90;;;25.09;38.67;94803.66;5047465;28;20219;-41
2023/06/19 01:21:17;;;;;;;0.32;0.32;;;24.50;55.00;;;25.08;38.73;94810.13;5030767;28;20194;-41
2023/06/19 01:23:45;;;;;;;0.30;0.30;;;24.50;55.10;;;25.07;38.64;94811.22;5030680;28;20611;-40
2023/06/19 01:26:12;;;;;;;0.30;0.30;;;24.40;54.80;;;25.05;38.40;94809.91;5030476;28;20313;-43
2023/06/19 01:28:42;;;;;;;0.30;0.30;;;24.50;55.00;;;25.04;38.59;94811.00;5030389;28;20245;-41
2023/06/19 01:31:16;;;;;;;0.30;0.30;;;24.40;55.00;;;25.02;38.79;94805.88;5030475;28;20204;-42
2023/06/19 01:33:46;;;;;;;0.30;0.30;;;24.40;55.00;;;25.02;38.75;94802.41;5047341;28;20235;-41
2023/06/19 01:36:16;;;;;;;0.45;0.45;;;24.40;55.00;;;25.00;38.91;94804.56;5032593;28;20615;-41
2023/06/19 01:38:45;;;;;;;0.20;0.20;;;24.40;55.10;;;25.00;38.76;94809.94;5050249;28;20624;-42
2023/06/19 01:41:15;;;;;;;0.22;0.22;;;24.40;55.10;;;24.98;39.15;94809.44;5035285;28;20517;-42
2023/06/19 01:43:43;;;;;;;0.40;0.40;;;24.40;55.00;;;24.96;38.77;94800.88;5034059;28;20663;-41
2023/06/19 01:46:11;;;;;;;0.40;0.40;;;24.40;55.10;;;24.93;38.74;94800.34;5033987;28;20197;-41
2023/06/19 01:48:39;;;;;;;0.30;0.30;;;24.40;55.10;;;24.92;38.63;94795.28;5034490;28;20247;-40
2023/06/19 01:51:07;;;;;;;0.40;0.40;;;24.40;55.20;;;24.90;38.96;94805.50;5050291;28;20208;-41
2023/06/19 01:53:37;;;;;;;0.30;0.30;;;24.30;55.10;;;24.89;38.90;94802.03;5034774;28;20575;-42
2023/06/19 01:56:04;;;;;;;0.32;0.32;;;24.30;55.10;;;24.88;39.12;94797.75;5050171;28;20204;-42
2023/06/19 01:58:31;;;;;;;0.30;0.30;;;24.30;55.20;;;24.87;38.99;94798.03;5049942;28;20201;-41
2023/06/19 02:01:01;;;;;;;0.30;0.30;;;24.30;55.20;;;24.87;38.81;94806.88;5033529;28;20262;-41
2023/06/19 02:03:27;;;;;;;0.30;0.30;;;24.30;55.20;;;24.85;39.01;94798.31;5034449;28;20239;-44
2023/06/19 02:05:55;;;;;;;0.30;0.30;;;24.30;55.20;;;24.83;38.96;94805.84;5034549;28;20631;-42
2023/06/19 02:08:22;;;;;;;0.22;0.22;;;24.30;55.20;;;24.83;38.98;94805.84;5049703;28;20265;-41
2023/06/19 02:10:49;;;;;;;0.30;0.30;;;24.20;55.20;;;24.81;38.90;94809.91;5034389;28;20563;-41
2023/06/19 02:13:16;;;;;;;0.50;0.50;;;24.20;55.20;;;24.78;39.43;94805.91;5034249;28;20530;-42
2023/06/19 02:15:43;;;;;;;0.30;0.30;;;24.20;55.30;;;24.77;39.02;94801.63;5033268;28;20199;-41
2023/06/19 02:18:10;;;;;;;0.30;0.30;;;24.20;55.20;;;24.76;38.98;94802.69;5034110;28;20221;-40
2023/06/19 02:20:38;;;;;;;0.30;0.30;;;24.20;55.20;;;24.74;39.03;94808.34;5034227;28;20530;-43
2023/06/19 02:23:06;;;;;;;0.30;0.30;;;24.20;56.50;;;24.72;38.88;94807.03;5033110;28;20243;-43
2023/06/19 02:25:35;;;;;;;0.40;0.40;;;24.20;56.40;;;24.70;38.79;94803.84;5049988;28;20211;-41
2023/06/19 02:28:03;;;;;;;0.30;0.30;;;24.10;55.20;;;24.69;39.04;94802.25;5049877;28;20570;-43
2023/06/19 02:30:30;;;;;;;0.30;0.30;;;24.10;55.20;;;24.68;38.93;94803.31;5032910;28;20229;-42
2023/06/19 02:32:57;;;;;;;0.50;0.50;;;24.10;55.30;;;24.66;39.16;94797.44;5033044;28;20206;-46
2023/06/19 02:35:26;;;;;;;0.30;0.30;;;24.10;55.30;;;24.65;39.40;94804.66;5034148;28;20201;-44
2023/06/19 02:37:55;;;;;;;0.45;0.45;;;24.10;55.40;;;24.65;39.21;94804.66;5033689;28;20250;-41
2023/06/19 02:40:22;;;;;;;0.40;0.40;;;24.10;55.50;;;24.64;39.23;94802.25;5032890;28;20534;-45
2023/06/19 02:42:50;;;;;;;0.30;0.30;;;24.10;55.50;;;24.60;39.08;94794.78;5032934;28;20249;-44
2023/06/19 02:45:17;;;;;;;0.22;0.22;;;24.00;55.40;;;24.60;39.32;94789.41;5033951;28;20201;-48
2023/06/19 02:47:44;;;;;;;0.40;0.40;;;24.10;55.50;;;24.58;39.25;94791.59;5032923;28;20736;-46
2023/06/19 02:50:12;;;;;;;0.30;0.30;;;24.00;55.40;;;24.57;39.20;94784.63;5032701;28;20665;-41
2023/06/19 02:52:39;;;;;;;0.35;0.35;;;24.00;55.40;;;24.56;39.17;94783.03;5049245;28;20212;-42
2023/06/19 02:55:07;;;;;;;0.30;0.30;;;24.00;55.50;;;24.55;39.39;94786.00;5049414;28;20237;-41
2023/06/19 02:57:34;;;;;;;0.30;0.30;;;24.00;55.50;;;24.54;39.14;94779.03;5033836;28;20549;-42
2023/06/19 03:00:05;;;;;;;0.40;0.40;;;24.00;55.50;;;24.52;39.30;94790.03;5032665;28;20223;-41
2023/06/19 03:02:33;;;;;;;0.43;0.43;;;24.00;55.50;;;24.51;39.39;94799.16;5033703;28;20613;-42
2023/06/19 03:05:01;;;;;;;0.30;0.30;;;24.00;55.60;;;24.50;39.36;94794.06;5032620;28;20208;-41
2023/06/19 03:07:28;;;;;;;0.30;0.30;;;24.00;55.60;;;24.49;39.31;94797.88;5032578;28;20227;-42
2023/06/19 03:09:56;;;;;;;0.30;0.30;;;24.00;55.60;;;24.47;39.16;94803.47;5033215;28;20192;-41
2023/06/19 03:12:23;;;;;;;0.20;0.20;;;23.90;55.60;;;24.44;39.30;94804.84;5032437;28;20233;-41
2023/06/19 03:14:50;;;;;;;0.20;0.20;;;23.90;55.50;;;24.44;39.28;94809.44;5032578;28;20210;-41
2023/06/19 03:17:17;;;;;;;0.30;0.30;;;23.90;55.60;;;24.42;39.20;94808.91;5032326;28;20635;-40
2023/06/19 03:19:44;;;;;;;0.30;0.30;;;23.90;55.60;;;24.41;39.34;94809.97;5033001;28;20200;-41
2023/06/19 03:22:12;;;;;;;0.30;0.30;;;23.90;56.80;;;24.39;39.53;94810.25;5032052;28;20609;-41
2023/06/19 03:24:39;;;;;;;0.30;0.30;;;23.90;55.60;;;24.38;39.50;94815.91;5048970;28;20196;-41
2023/06/19 03:27:16;;;;;;;0.40;0.40;;;23.90;55.70;;;24.36;39.42;94818.06;5032110;28;20217;-41
2023/06/19 03:29:43;;;;;;;0.30;0.30;;;23.80;55.50;;;24.35;39.38;94821.81;5048497;28;20208;-42
2023/06/19 03:32:15;;;;;;;0.20;0.20;;;23.80;55.60;;;24.34;39.32;94815.69;5032633;28;20223;-41
2023/06/19 03:34:42;;;;;;;0.40;0.40;;;23.80;55.60;;;24.34;39.16;94814.88;5048639;28;20257;-38
2023/06/19 03:37:12;;;;;;;0.30;0.30;;;23.90;55.80;;;24.33;39.74;94813.25;5032062;28;20292;-39
2023/06/19 03:39:40;;;;;;;0.43;0.43;;;23.80;55.70;;;24.32;39.50;94814.38;5048573;28;20546;-39
2023/06/19 03:42:10;;;;;;;0.40;0.40;;;23.80;55.80;;;24.30;39.40;94811.94;5048850;28;20256;-39
2023/06/19 03:44:38;;;;;;;0.40;0.40;;;23.80;55.80;;;24.30;39.75;94811.94;5031877;28;20204;-43
2023/06/19 03:47:10;;;;;;;0.30;0.30;;;23.80;57.10;;;24.29;39.45;94810.34;5032707;28;20212;-38
2023/06/19 03:49:37;;;;;;;0.30;0.30;;;23.80;55.90;;;24.28;39.71;94806.09;5048264;28;20201;-39
2023/06/19 03:52:05;;;;;;;0.45;0.45;;;23.80;55.90;;;24.28;39.73;94808.75;5032963;28;20288;-41
2023/06/19 03:54:32;;;;;;;0.45;0.45;;;23.80;55.90;;;24.27;39.82;94802.59;5048357;28;20193;-39
2023/06/19 03:56:59;;;;;;;0.30;0.30;;;23.80;56.00;;;24.26;39.70;94808.22;5031750;28;20204;-42
2023/06/19 03:59:26;;;;;;;0.30;0.30;;;23.80;56.00;;;24.27;39.84;94809.84;5031521;28;20258;-39
2023/06/19 04:01:53;;;;;;;0.40;0.40;;;23.80;56.00;;;24.25;39.70;94812.78;5032628;28;20219;-38
2023/06/19 04:04:21;;;;;;;0.30;0.30;;;23.80;56.00;;;24.25;39.86;94815.47;5031615;28;20205;-38
2023/06/19 04:06:48;;;;;;;0.40;0.40;;;23.80;56.10;;;24.25;40.03;94820.81;5048103;28;20197;-39
2023/06/19 04:09:15;;;;;;;0.30;0.30;;;23.80;56.10;;;24.23;39.99;94814.97;5032384;28;20185;-39
2023/06/19 04:11:43;;;;;;;0.32;0.32;;;23.70;56.00;;;24.24;39.70;94824.59;5032659;28;20229;-43
2023/06/19 04:14:10;;;;;;;0.30;0.30;;;23.80;56.10;;;24.24;39.97;94823.78;5031501;28;20205;-39
2023/06/19 04:16:37;;;;;;;0.38;0.38;;;23.80;56.20;;;24.23;39.89;94825.69;5048570;28;20212;-40
2023/06/19 04:19:04;;;;;;;0.30;0.30;;;23.80;56.30;;;24.23;39.95;94817.63;5031309;28;20201;-43
2023/06/19 04:21:31;;;;;;;0.30;0.30;;;23.80;56.30;;;24.23;40.15;94822.19;5047993;28;20202;-41
2023/06/19 04:23:58;;;;;;;0.30;0.30;;;23.80;57.50;;;24.23;40.14;94833.72;5031264;28;20244;-44
2023/06/19 04:26:26;;;;;;;0.32;0.32;;;23.80;56.30;;;24.22;40.03;94836.69;5031396;28;20296;-40
2023/06/19 04:28:53;;;;;;;0.30;0.30;;;23.80;56.40;;;24.21;40.11;94835.09;5032231;28;20221;-42
2023/06/19 04:31:20;;;;;;;0.30;0.30;;;23.80;56.40;;;24.21;40.43;94833.19;5032076;28;20197;-39
2023/06/19 04:33:47;;;;;;;0.30;0.30;;;23.70;56.30;;;24.21;40.17;94829.72;5032786;28;20184;-40
2023/06/19 04:36:14;;;;;;;0.30;0.30;;;23.80;56.50;;;24.21;40.24;94829.72;5031827;28;20287;-46
2023/06/19 04:38:42;;;;;;;0.30;0.30;;;23.70;56.40;;;24.20;40.21;94826.22;5032139;28;20200;-41
2023/06/19 04:41:09;;;;;;;0.30;0.30;;;23.70;56.40;;;24.21;40.18;94813.66;5031922;28;20189;-41
2023/06/19 04:43:36;;;;;;;0.30;0.30;;;23.70;56.50;;;24.19;40.38;94819.25;5047662;28;20201;-40
2023/06/19 04:46:04;;;;;;;0.30;0.30;;;23.80;56.50;;;24.20;40.20;94812.81;5032762;28;20724;-40
2023/06/19 04:48:31;;;;;;;0.20;0.20;;;23.70;56.60;;;24.20;40.29;94820.88;5031910;28;20220;-40
2023/06/19 04:51:00;;;;;;;0.30;0.30;;;23.70;56.60;;;24.20;40.45;94828.13;5047341;28;20241;-38
2023/06/19 04:53:28;;;;;;;0.30;0.30;;;23.80;56.70;;;24.20;40.46;94830.81;5031909;28;20192;-39
2023/06/19 04:55:55;;;;;;;0.20;0.20;;;23.80;56.80;;;24.21;40.49;94837.75;5031593;28;20381;-39
2023/06/19 04:58:22;;;;;;;0.30;0.30;;;23.80;56.70;;;24.21;40.43;94835.09;5031932;28;20243;-39
2023/06/19 05:00:51;;;;;;;0.30;0.30;;;23.80;56.80;;;24.20;40.82;94836.16;5031745;28;20567;-40
2023/06/19 05:03:19;;;;;;;0.50;0.50;;;23.80;56.80;;;24.20;40.58;94845.00;5031735;28;20218;-39
2023/06/19 05:05:46;;;;;;;0.20;0.20;;;23.80;56.80;;;24.21;40.53;94837.75;5032293;28;20231;-39
2023/06/19 05:08:13;;;;;;;0.30;0.30;;;23.80;56.80;;;24.22;40.58;94842.06;5031643;28;20241;-39
2023/06/19 05:10:40;;;;;;;0.20;0.20;;;23.80;56.80;;;24.22;40.81;94839.38;5032589;28;20197;-39
2023/06/19 05:13:12;;;;;;;0.30;0.30;;;23.80;56.80;;;24.23;40.57;94846.31;5035527;28;20191;-39
2023/06/19 05:15:39;;;;;;;0.30;0.30;;;23.80;58.10;;;24.23;40.53;94844.44;5035167;28;20197;-38
2023/06/19 05:18:06;;;;;;;0.22;0.22;;;23.80;56.90;;;24.24;40.69;94843.38;5035649;28;20233;-41
2023/06/19 05:20:33;;;;;;;0.30;0.30;;;23.80;56.90;;;24.26;40.46;94853.78;5035161;28;20201;-39
2023/06/19 05:23:01;;;;;;;0.20;0.20;;;23.90;57.10;;;24.24;40.56;94848.72;5050327;28;20241;-41
2023/06/19 05:25:28;;;;;;;0.30;0.30;;;23.90;57.10;;;24.26;40.86;94851.91;5035277;28;20205;-39
2023/06/19 05:27:56;;;;;;;0.20;0.20;;;23.90;57.10;;;24.27;40.87;94855.41;5034947;28;20223;-40
2023/06/19 05:30:23;;;;;;;0.30;0.30;;;23.90;57.10;;;24.27;41.06;94848.16;5034941;28;20633;-39
2023/06/19 05:32:50;;;;;;;0.30;0.30;;;23.90;57.10;;;24.29;40.80;94850.53;5034692;28;20201;-39
2023/06/19 05:35:18;;;;;;;0.20;0.20;;;23.90;57.20;;;24.29;40.87;94859.41;5033888;28;20201;-39
2023/06/19 05:37:45;;;;;;;0.50;0.50;;;23.90;57.20;;;24.30;41.01;94858.31;5034820;28;20641;-38
2023/06/19 05:40:12;;;;;;;0.30;0.30;;;23.90;57.20;;;24.32;40.94;94868.75;5035024;28;20283;-41
2023/06/19 05:42:40;;;;;;;0.30;0.30;;;23.90;57.20;;;24.32;41.21;94866.06;5050238;28;20200;-40
2023/06/19 05:45:08;;;;;;;0.30;0.30;;;23.90;57.20;;;24.34;41.00;94871.16;5050884;28;20674;-38
2023/06/19 05:47:35;;;;;;;0.22;0.22;;;24.00;57.30;;;24.34;41.10;94871.97;5034824;28;20210;-41
2023/06/19 05:50:03;;;;;;;0.40;0.40;;;24.00;57.40;;;24.36;41.06;94875.16;5035220;28;20191;-40
2023/06/19 05:52:31;;;;;;;0.40;0.40;;;24.00;57.50;;;24.38;41.02;94877.56;5050065;28;20268;-40
2023/06/19 05:54:58;;;;;;;0.30;0.30;;;24.00;57.30;;;24.39;41.14;94876.47;5050377;28;20293;-42
2023/06/19 05:57:25;;;;;;;0.30;0.30;;;24.00;57.40;;;24.40;41.12;94873.53;5034815;28;20201;-41
2023/06/19 05:59:52;;;;;;;0.50;0.50;;;24.00;57.60;;;24.41;41.16;94871.63;5050635;28;20194;-41
2023/06/19 06:02:20;;;;;;;0.40;0.40;;;24.00;57.50;;;24.43;41.38;94877.53;5034359;28;20195;-41
2023/06/19 06:04:48;;;;;;;0.30;0.30;;;24.00;57.60;;;24.43;41.50;94875.63;5034906;28;20212;-41
2023/06/19 06:07:15;;;;;;;0.30;0.30;;;24.10;57.50;;;24.44;41.14;94869.19;5034394;28;20645;-41
2023/06/19 06:09:42;;;;;;;0.35;0.35;;;24.10;57.60;;;24.45;41.31;94873.47;5034123;28;20273;-42
2023/06/19 06:12:09;;;;;;;0.20;0.20;;;24.10;57.60;;;24.48;41.02;94874.78;5017159;28;20212;-42
2023/06/19 06:14:36;;;;;;;0.30;0.30;;;24.10;57.50;;;24.48;41.11;94866.75;5050153;28;20212;-41
2023/06/19 06:17:05;;;;;;;0.25;0.25;;;24.10;57.50;;;24.49;41.46;94867.56;5034254;28;20199;-43
2023/06/19 06:19:32;;;;;;;0.30;0.30;;;24.10;57.50;;;24.51;41.22;94866.19;5034452;28;20198;-41
2023/06/19 06:21:59;;;;;;;0.30;0.30;;;24.10;57.50;;;24.52;41.42;94873.16;5032908;28;20513;-41
2023/06/19 06:24:27;;;;;;;0.47;0.47;;;24.20;57.60;;;24.53;41.36;94877.44;5033595;28;20516;-42
2023/06/19 06:26:54;;;;;;;0.60;0.60;;;24.20;57.50;;;24.54;41.48;94879.03;5034369;28;20241;-43
2023/06/19 06:29:22;;;;;;;0.30;0.30;;;24.20;57.60;;;24.55;41.38;94885.22;5034584;28;20209;-39
2023/06/19 06:31:49;;;;;;;0.50;0.50;;;24.20;57.60;;;24.56;41.46;94887.59;5049653;28;20191;-39
2023/06/19 06:34:16;;;;;;;0.35;0.35;;;24.20;57.60;;;24.57;41.41;94880.34;5032998;28;20207;-42
2023/06/19 06:36:43;;;;;;;0.28;0.28;;;24.20;57.60;;;24.57;41.30;94883.84;5049879;28;20210;-40
2023/06/19 06:39:31;;;;;;;0.30;0.30;;;24.20;57.60;;;24.60;41.36;94887.84;5034167;28;20520;-41
2023/06/19 06:41:58;;;;;;;0.40;0.40;;;24.20;57.70;;;24.60;41.44;94888.63;5049768;28;20199;-41
2023/06/19 06:44:25;;;;;;;0.30;0.30;;;24.30;57.70;;;24.62;41.46;94891.84;5034081;28;20206;-40
2023/06/19 06:46:52;;;;;;;0.38;0.38;;;24.30;58.00;;;24.65;41.44;94893.16;5032875;28;20270;-39
2023/06/19 06:49:20;;;;;;;0.40;0.40;;;24.30;57.80;;;24.65;41.12;94895.06;5033685;28;20563;-38
2023/06/19 06:51:47;;;;;;;0.30;0.30;;;24.30;57.90;;;24.68;41.52;94899.88;5049838;28;20583;-41
2023/06/19 06:54:14;;;;;;;0.20;0.20;;;24.30;57.90;;;24.69;41.68;94891.53;5033788;28;20208;-42
2023/06/19 06:56:42;;;;;;;0.40;0.40;;;24.30;57.90;;;24.70;41.57;94893.13;5033034;28;20206;-42
2023/06/19 06:59:09;;;;;;;0.30;0.30;;;24.30;57.90;;;24.72;41.64;94890.19;5033704;28;20194;-42
2023/06/19 07:01:36;;;;;;;0.30;0.30;;;24.30;57.90;;;24.73;41.89;94891.78;5034118;28;20294;-40
2023/06/19 07:04:04;;;;;;;0.40;0.40;;;24.40;58.00;;;24.76;41.40;94901.94;5033383;28;20195;-41
2023/06/19 07:06:31;;;;;;;0.30;0.30;;;24.40;58.00;;;24.78;41.67;94905.16;5033766;28;20277;-41
2023/06/19 07:08:58;;;;;;;0.30;0.30;;;24.40;58.00;;;24.78;41.59;94907.84;5033436;28;20238;-41
2023/06/19 07:11:25;;;;;;;0.30;0.30;;;24.40;58.10;;;24.80;41.74;94908.34;5033429;28;20276;-41
2023/06/19 07:13:52;;;;;;;0.40;0.40;;;24.40;58.00;;;24.82;41.52;94902.72;5049143;28;20558;-39
2023/06/19 07:16:19;;;;;;;0.28;0.28;;;24.40;58.10;;;24.84;41.64;94912.06;5033371;28;20235;-44
2023/06/19 07:18:46;;;;;;;0.30;0.30;;;24.50;58.20;;;24.87;41.78;94919.53;5033526;28;20213;-44
2023/06/19 07:21:15;;;;;;;0.30;0.30;;;24.50;58.30;;;24.89;42.04;94919.25;5033264;28;20256;-41
2023/06/19 07:23:45;;;;;;;0.50;0.50;;;24.50;58.30;;;24.91;41.75;94919.78;5032952;28;20246;-41
2023/06/19 07:26:14;;;;;;;0.30;0.30;;;24.50;58.30;;;24.92;41.85;94916.81;5033737;28;20179;-41
2023/06/19 07:28:42;;;;;;;0.30;0.30;;;24.50;58.30;;;24.94;41.82;94916.53;5033324;28;20310;-41
2023/06/19 07:31:09;;;;;;;0.30;0.30;;;24.60;58.40;;;24.95;41.68;94918.16;5033076;28;20223;-44
2023/06/19 07:33:36;;;;;;;0.30;0.30;;;24.60;58.40;;;24.99;41.73;94923.75;5032831;28;20192;-42
2023/06/19 07:36:03;;;;;;;0.20;0.20;;;24.60;58.40;;;25.01;42.07;94918.88;5033296;28;20196;-41
2023/06/19 07:38:30;;;;;;;0.30;0.30;;;24.60;58.40;;;25.01;41.96;94917.00;5032991;28;20200;-41
2023/06/19 07:40:58;;;;;;;0.43;0.43;;;24.60;58.40;;;25.04;41.82;94913.75;5033229;28;20230;-43
2023/06/19 07:43:25;;;;;;;0.20;0.20;;;24.60;58.50;;;25.07;41.88;94917.75;5032789;28;20269;-42
2023/06/19 07:45:52;;;;;;;0.28;0.28;;;24.70;58.70;;;25.08;42.25;94914.78;5032894;28;20197;-43
2023/06/19 07:48:19;;;;;;;0.30;0.30;;;24.70;58.60;;;25.11;42.01;94910.75;5033056;28;20216;-43
2023/06/19 07:50:46;;;;;;;0.50;0.50;;;24.70;58.70;;;25.12;41.87;94920.41;5033027;28;20588;-39
2023/06/19 07:53:13;;;;;;;0.25;0.25;;;24.70;58.60;;;25.15;41.94;94924.41;5032853;28;20204;-46
2023/06/19 07:55:41;;;;;;;0.40;0.40;;;24.80;58.80;;;25.17;42.06;94922.22;5032826;28;20262;-45
2023/06/19 07:58:09;;;;;;;0.38;0.38;;;24.80;58.80;;;25.20;42.13;94921.66;5048382;28;20233;-42
2023/06/19 08:00:36;;;;;;;0.30;0.30;;;24.80;58.80;;;25.21;42.20;94918.69;5031735;28;20712;-43
2023/06/19 08:03:04;;;;;;;0.30;0.30;;;24.80;58.80;;;25.25;42.01;94924.28;5033013;28;20193;-43
2023/06/19 08:05:32;;;;;;;0.35;0.35;;;24.90;58.80;;;25.26;42.31;94929.34;5032881;28;20579;-41
2023/06/19 08:07:59;;;;;;;0.30;0.30;;;24.90;58.90;;;25.29;42.44;94919.13;5048147;28;20206;-41
2023/06/19 08:10:27;;;;;;;0.40;0.40;;;24.90;58.80;;;25.33;42.07;94931.72;5032589;28;20639;-42
2023/06/19 08:12:54;;;;;;;0.40;0.40;;;24.90;58.80;;;25.35;42.26;94926.06;5032278;28;20643;-40
2023/06/19 08:15:21;;;;;;;0.32;0.32;;;24.90;58.90;;;25.37;42.29;94922.03;5031752;28;20311;-38
2023/06/19 08:17:48;;;;;;;0.20;0.20;;;25.00;59.00;;;25.40;42.35;94918.78;5032733;28;20273;-40
2023/06/19 08:20:16;;;;;;;0.30;0.30;;;25.00;59.00;;;25.42;42.32;94921.97;5032414;28;20192;-38
2023/06/19 08:22:43;;;;;;;0.30;0.30;;;25.00;59.00;;;25.44;42.30;94910.97;5032108;28;20240;-38
2023/06/19 08:25:11;;;;;;;0.28;0.28;;;25.00;59.00;;;25.48;42.47;94919.25;5032633;28;20197;-43
2023/06/19 08:27:39;;;;;;;0.30;0.30;;;25.10;59.20;;;25.50;42.54;94912.50;5032693;28;20203;-39
2023/06/19 08:30:07;;;;;;;0.40;0.40;;;25.10;59.10;;;25.52;42.29;94917.56;5032286;28;20247;-41
2023/06/19 08:32:34;;;;;;;0.40;0.40;;;25.10;59.10;;;25.55;42.37;94911.63;5032497;28;20651;-39
2023/06/19 08:35:03;;;;;;;0.30;0.30;;;25.10;59.20;;;25.59;42.51;94915.34;5047696;28;20205;-38
2023/06/19 08:37:30;;;;;;;0.20;0.20;;;25.20;59.20;;;25.61;42.60;94910.50;5032411;28;20272;-43
2023/06/19 08:39:57;;;;;;;0.20;0.20;;;25.20;59.10;;;25.64;42.29;94907.22;5032416;28;20265;-38
2023/06/19 08:42:24;;;;;;;0.30;0.30;;;25.20;59.20;;;25.67;42.56;94914.72;5032139;28;20221;-38
2023/06/19 08:44:51;;;;;;;0.38;0.38;;;25.30;59.30;;;25.71;42.62;94920.31;5046814;28;20247;-44
2023/06/19 08:47:18;;;;;;;0.43;0.43;;;25.30;59.20;;;25.73;42.62;94916.25;5048125;28;20212;-38
2023/06/19 08:49:46;;;;;;;0.30;0.30;;;25.30;59.20;;;25.77;42.40;94919.16;5030978;28;20310;-42
2023/06/19 08:52:13;;;;;;;0.30;0.30;;;25.40;59.30;;;25.80;42.39;94929.31;5032271;28;20297;-41
2023/06/19 08:54:43;;;;;;;0.30;0.30;;;25.40;59.20;;;25.83;42.44;94926.06;5031884;28;20262;-40
2023/06/19 08:57:14;;;;;;;0.20;0.20;;;25.40;59.20;;;25.85;42.42;94931.94;5032269;28;20200;-47
2023/06/19 08:59:50;;;;;;;0.30;0.30;;;25.40;59.20;;;25.87;42.59;94929.75;5031951;28;20250;-39
2023/06/19 09:02:17;;;;;;;0.30;0.30;;;25.50;59.50;;;25.90;42.36;94936.44;5032123;28;20197;-38
2023/06/19 09:04:45;;;;;;;0.20;0.20;;;25.50;59.50;;;25.94;42.39;94933.97;5047207;28;20588;-38
2023/06/19 09:07:14;;;;;;;0.30;0.30;;;25.50;59.40;;;25.97;42.80;94933.41;5031239;28;20533;-46
2023/06/19 09:09:47;;;;;;;0.20;0.20;;;25.60;59.60;;;25.99;42.57;94940.09;5047419;28;20298;-41
2023/06/19 09:12:15;;;;;;;0.28;0.28;;;25.60;59.60;;;26.02;42.60;94927.97;5031743;28;20196;-40
2023/06/19 09:14:47;;;;;;;0.30;0.30;;;25.60;59.60;;;26.05;42.53;94933.56;5030786;28;20242;-41
2023/06/19 09:17:20;;;;;;;0.30;0.30;;;25.60;59.50;;;26.09;42.86;94939.19;5031756;28;20201;-39
2023/06/19 09:19:57;;;;;;;0.20;0.20;;;25.70;59.80;;;26.11;42.67;94928.94;5031061;28;20206;-41
2023/06/19 09:22:25;;;;;;;0.20;0.20;;;25.70;60.10;;;26.15;42.56;94927.28;5030628;28;20250;-42
2023/06/19 09:24:52;;;;;;;0.22;0.22;;;25.70;59.40;;;26.18;43.00;94929.38;5031452;28;20226;-42
2023/06/19 09:27:20;;;;;;;0.30;0.30;;;25.80;59.30;;;26.22;42.69;94926.91;5030627;28;20584;-42
2023/06/19 09:29:51;;;;;;;0.28;0.28;;;25.80;59.30;;;26.25;42.23;94922.84;5031709;28;20219;-42
2023/06/19 09:32:20;;;;;;;0.30;0.30;;;25.80;59.10;;;26.28;42.65;94923.06;5031997;28;20200;-41
2023/06/19 09:34:54;;;;;;;0.30;0.30;;;25.90;59.20;;;26.30;42.27;94910.09;5047473;28;20194;-42
2023/06/19 09:37:30;;;;;;;0.20;0.20;;;25.90;58.90;;;26.34;41.95;94919.22;5014491;28;20263;-41
2023/06/19 09:40:12;;;;;;;0.28;0.28;;;25.90;58.70;;;26.37;42.16;94921.28;5030465;28;20240;-41
2023/06/19 09:42:42;;;;;;;0.30;0.30;;;26.00;58.70;;;26.39;41.93;94917.53;5031755;28;20213;-44
2023/06/19 09:45:26;;;;;;;0.30;0.30;;;26.00;58.60;;;26.41;42.08;94918.81;5046938;28;20669;-44
2023/06/19 09:47:54;;;;;;;0.20;0.20;;;26.00;58.50;;;26.45;42.01;94919.03;5031484;28;20276;-41
2023/06/19 09:50:27;;;;;;;0.22;0.22;;;26.00;58.40;;;26.47;41.61;94920.34;5030520;28;20241;-41
2023/06/19 09:52:55;;;;;;;0.22;0.22;;;26.10;58.30;;;26.50;41.49;94918.94;5030471;28;20195;-38
2023/06/19 09:55:30;;;;;;;0.25;0.25;;;26.10;58.10;;;26.53;41.37;94915.69;5031067;28;20198;-41
2023/06/19 09:57:58;;;;;;;0.30;0.30;;;26.10;57.90;;;26.56;41.59;94917.00;5034694;28;20571;-41
2023/06/19 10:00:30;;;;;;;0.30;0.30;;;26.10;57.80;;;26.58;41.24;94912.91;5034690;28;20240;-40
2023/06/19 10:03:00;;;;;;;0.20;0.20;;;26.10;57.70;;;26.61;41.08;94920.41;5049540;28;20268;-40
2023/06/19 10:05:31;;;;;;;0.20;0.20;;;26.20;57.70;;;26.62;41.00;94913.94;5034488;28;20210;-43
2023/06/19 10:08:00;;;;;;;0.28;0.28;;;26.20;57.40;;;26.65;40.95;94924.09;5034733;28;20610;-38
2023/06/19 10:10:29;;;;;;;0.20;0.20;;;26.20;57.50;;;26.69;40.92;94921.63;5034393;28;20230;-42
2023/06/19 10:13:13;;;;;;;0.20;0.20;;;26.20;57.40;;;26.68;40.94;94918.16;5033594;28;20515;-39
2023/06/19 10:15:43;;;;;;;0.30;0.30;;;26.30;57.20;;;26.73;41.18;94913.75;5034581;28;20554;-48
2023/06/19 10:18:16;;;;;;;0.20;0.20;;;26.30;57.30;;;26.74;40.56;94918.06;5034605;28;20282;-45
2023/06/19 10:20:46;;;;;;;0.30;0.30;;;26.30;57.10;;;26.77;40.90;94923.69;5034233;28;20285;-40
2023/06/19 10:23:22;;;;;;;0.30;0.30;;;26.30;57.20;;;26.79;40.62;94913.44;5034215;28;20294;-39
2023/06/19 10:25:58;;;;;;;0.20;0.20;;;26.30;58.30;;;26.79;40.53;94905.34;5034191;28;20215;-42